Terminal Aerodrome Forecast
Issued by NWS

Home | Current Version | Previous Version | Text Only | Print | Product List | Glossary On
Versions: 1 2 3 4 5 6 7 8 9 10 11 12 13 14 15 16 17 18
538
FTUS46 KMTR 201727
TAFSTS
TAF
KSTS 201727Z 2018/2118 20003KT P6SM OVC010
      TEMPO 2018/2019 SCT011
     FM201900 18008KT P6SM SCT250
     FM210300 17005KT P6SM BKN010
     FM210400 20004KT P6SM OVC008=

USA.gov is the U.S. government's official web portal to all federal, state and local government web resources and services.